createdAt,value
2023-05-03T00:00:15.737Z,2.90
2023-05-03T00:02:44.088Z,4.30
2023-05-03T00:05:14.629Z,8.10
2023-05-03T00:07:42.764Z,4.40
2023-05-03T00:10:13.117Z,3.30
2023-05-03T00:12:40.073Z,7.20
2023-05-03T00:15:08.148Z,4.00
2023-05-03T00:17:38.593Z,4.20
2023-05-03T00:20:06.920Z,6.60
2023-05-03T00:22:33.732Z,6.20
2023-05-03T00:25:00.756Z,4.70
2023-05-03T00:27:28.393Z,3.30
2023-05-03T00:29:55.322Z,3.20
2023-05-03T00:32:22.273Z,3.80
2023-05-03T00:34:58.418Z,2.70
2023-05-03T00:37:25.807Z,6.20
2023-05-03T00:39:53.303Z,4.50
2023-05-03T00:42:20.197Z,9.70
2023-05-03T00:44:47.155Z,3.20
2023-05-03T00:47:15.407Z,4.00
2023-05-03T00:49:42.369Z,3.20
2023-05-03T00:52:09.612Z,3.70
2023-05-03T00:54:37.387Z,8.10
2023-05-03T00:57:04.337Z,3.80
2023-05-03T00:59:32.551Z,6.70
2023-05-03T01:01:59.796Z,4.50
2023-05-03T01:04:27.322Z,4.30
2023-05-03T01:07:06.156Z,4.20
2023-05-03T01:09:42.921Z,4.50
2023-05-03T01:12:35.372Z,7.70
2023-05-03T01:15:31.639Z,4.80
2023-05-03T01:18:02.603Z,4.40
2023-05-03T01:20:30.406Z,2.70
2023-05-03T01:22:57.558Z,3.20
2023-05-03T01:25:24.710Z,5.30
2023-05-03T01:27:51.710Z,2.40
2023-05-03T01:30:18.531Z,3.80
2023-05-03T01:33:10.435Z,4.10
2023-05-03T01:35:50.214Z,6.90
2023-05-03T01:38:17.036Z,2.70
2023-05-03T01:40:49.149Z,3.30
2023-05-03T01:43:16.564Z,4.10
2023-05-03T01:45:43.437Z,3.60
2023-05-03T01:48:12.575Z,3.70
2023-05-03T01:50:39.546Z,9.80
2023-05-03T01:53:06.311Z,4.90
2023-05-03T01:55:33.746Z,6.10
2023-05-03T01:58:00.688Z,8.70
2023-05-03T02:00:27.633Z,7.10
2023-05-03T02:02:54.447Z,10.00
2023-05-03T02:05:21.244Z,2.60
2023-05-03T02:07:48.034Z,7.20
2023-05-03T02:10:15.837Z,7.20
2023-05-03T02:12:43.496Z,10.00
2023-05-03T02:15:11.581Z,8.00
2023-05-03T02:17:39.763Z,9.40
2023-05-03T02:20:10.086Z,4.90
2023-05-03T02:22:36.822Z,3.20
2023-05-03T02:25:04.457Z,5.50
2023-05-03T02:27:31.321Z,4.80
2023-05-03T02:29:58.164Z,6.60
2023-05-03T02:32:25.736Z,8.90
2023-05-03T02:34:53.360Z,7.10
2023-05-03T02:37:20.569Z,5.80
2023-05-03T02:39:47.611Z,6.30
2023-05-03T02:42:14.752Z,4.10
2023-05-03T02:44:41.672Z,10.20
2023-05-03T02:47:09.153Z,5.80
2023-05-03T02:49:36.301Z,7.00
2023-05-03T02:52:03.099Z,5.90
2023-05-03T02:54:31.006Z,6.00
2023-05-03T02:56:58.981Z,7.20
2023-05-03T02:59:25.734Z,4.70
2023-05-03T03:01:53.614Z,7.90
2023-05-03T03:04:20.870Z,4.70
2023-05-03T03:06:47.987Z,2.80
2023-05-03T03:09:16.016Z,4.80
2023-05-03T03:11:43.233Z,3.70
2023-05-03T03:14:10.037Z,4.70
2023-05-03T03:16:37.305Z,4.80
2023-05-03T03:19:04.179Z,5.00
2023-05-03T03:21:32.207Z,4.60
2023-05-03T03:23:58.985Z,5.20
2023-05-03T03:26:26.153Z,8.70
2023-05-03T03:28:53.107Z,8.10
2023-05-03T03:31:22.484Z,12.40
2023-05-03T03:33:50.044Z,5.20
2023-05-03T03:36:17.125Z,4.70
2023-05-03T03:38:44.447Z,3.60
2023-05-03T03:41:11.502Z,6.10
2023-05-03T03:43:38.566Z,3.10
2023-05-03T03:46:06.599Z,5.90
2023-05-03T03:48:33.701Z,6.20
2023-05-03T03:51:00.625Z,7.70
2023-05-03T03:53:33.189Z,5.90
2023-05-03T03:56:01.603Z,11.60
2023-05-03T03:58:29.369Z,8.80
2023-05-03T04:00:56.203Z,6.00
2023-05-03T04:03:23.634Z,11.60
2023-05-03T04:05:51.629Z,5.50
2023-05-03T04:08:19.484Z,6.00
2023-05-03T04:10:46.523Z,7.20
2023-05-03T04:13:14.159Z,8.70
2023-05-03T04:15:41.250Z,8.10
2023-05-03T04:18:08.425Z,6.60
2023-05-03T04:20:37.283Z,7.40
2023-05-03T04:23:04.845Z,8.20
2023-05-03T04:25:33.021Z,6.50
2023-05-03T04:28:05.119Z,9.10
2023-05-03T04:30:35.171Z,5.40
2023-05-03T04:33:04.161Z,6.40
2023-05-03T04:35:33.823Z,6.20
2023-05-03T04:38:03.729Z,7.70
2023-05-03T04:40:31.300Z,10.60
2023-05-03T04:43:04.997Z,7.30
2023-05-03T04:45:33.690Z,3.80
2023-05-03T04:48:01.418Z,6.90
2023-05-03T04:50:28.700Z,6.00
2023-05-03T04:52:55.578Z,7.90
2023-05-03T04:55:22.957Z,6.90
2023-05-03T04:59:05.714Z,5.00
2023-05-03T05:01:33.125Z,5.20
2023-05-03T05:04:01.744Z,7.80
2023-05-03T05:06:34.533Z,3.10
2023-05-03T05:09:02.308Z,2.60
2023-05-03T05:11:29.473Z,6.90
2023-05-03T05:13:57.650Z,6.60
2023-05-03T05:16:24.729Z,5.20
2023-05-03T05:18:52.883Z,4.80
2023-05-03T05:21:21.559Z,5.70
2023-05-03T05:23:48.537Z,3.50
2023-05-03T05:26:15.462Z,5.60
2023-05-03T05:28:43.220Z,4.70
2023-05-03T05:31:10.591Z,5.00
2023-05-03T05:33:37.614Z,5.20
2023-05-03T05:36:06.311Z,6.40
2023-05-03T05:38:34.002Z,3.60
2023-05-03T05:41:01.438Z,4.60
2023-05-03T05:43:28.896Z,5.30
2023-05-03T05:45:56.093Z,3.80
2023-05-03T05:48:23.305Z,4.40
2023-05-03T05:50:51.013Z,2.50
2023-05-03T05:53:17.916Z,13.40
2023-05-03T05:55:50.565Z,4.30
2023-05-03T05:58:17.955Z,6.70
2023-05-03T06:00:49.267Z,4.50
2023-05-03T06:03:17.053Z,8.60
2023-05-03T06:05:45.218Z,5.30
2023-05-03T06:08:13.011Z,3.50
2023-05-03T06:10:40.259Z,5.50
2023-05-03T06:13:07.437Z,6.30
2023-05-03T06:15:35.075Z,6.80
2023-05-03T06:18:02.216Z,7.60
2023-05-03T06:20:29.428Z,4.00
2023-05-03T06:22:56.965Z,3.90
2023-05-03T06:25:24.307Z,6.70
2023-05-03T06:27:51.380Z,5.90
2023-05-03T06:30:21.344Z,6.80
2023-05-03T06:32:49.500Z,6.90
2023-05-03T06:35:19.733Z,5.10
2023-05-03T06:37:47.135Z,6.80
2023-05-03T06:40:14.258Z,9.00
2023-05-03T06:42:41.229Z,8.10
2023-05-03T06:45:14.616Z,14.20
2023-05-03T06:47:43.143Z,9.00
2023-05-03T06:50:11.010Z,6.90
2023-05-03T06:52:38.216Z,3.00
2023-05-03T06:55:06.394Z,6.10
2023-05-03T06:57:33.347Z,9.10
2023-05-03T07:00:00.441Z,5.50
2023-05-03T07:02:27.596Z,5.10
2023-05-03T07:04:54.800Z,3.00
2023-05-03T07:07:21.918Z,5.70
2023-05-03T07:09:49.746Z,5.50
2023-05-03T07:12:16.693Z,3.70
2023-05-03T07:14:43.736Z,10.10
2023-05-03T07:17:10.662Z,2.90
2023-05-03T07:19:38.717Z,5.20
2023-05-03T07:22:05.691Z,4.70
2023-05-03T07:24:32.845Z,6.20
2023-05-03T07:26:59.631Z,3.60
2023-05-03T07:29:27.758Z,5.80
2023-05-03T07:31:54.859Z,4.40
2023-05-03T07:34:21.988Z,10.10
2023-05-03T07:36:49.033Z,3.60
2023-05-03T07:39:15.991Z,3.50
2023-05-03T07:41:42.983Z,8.60
2023-05-03T07:44:10.093Z,10.00
2023-05-03T07:46:37.103Z,6.80
2023-05-03T07:49:05.055Z,3.30
2023-05-03T07:51:38.518Z,10.70
2023-05-03T07:54:05.612Z,4.20
2023-05-03T07:56:32.667Z,2.90
2023-05-03T07:59:08.542Z,7.80
2023-05-03T08:01:38.202Z,4.40
2023-05-03T08:04:06.647Z,5.20
2023-05-03T08:06:35.854Z,6.00
2023-05-03T08:09:04.979Z,11.60
2023-05-03T08:11:32.487Z,5.70
2023-05-03T08:13:59.441Z,6.20
2023-05-03T08:16:28.462Z,8.20
2023-05-03T08:18:55.445Z,5.30
2023-05-03T08:21:24.891Z,4.80
2023-05-03T08:23:52.107Z,5.60
2023-05-03T08:26:18.980Z,8.80
2023-05-03T08:28:45.820Z,8.70
2023-05-03T08:31:12.873Z,7.60
2023-05-03T08:33:40.211Z,10.30
2023-05-03T08:36:07.777Z,6.10
2023-05-03T08:38:35.030Z,4.70
2023-05-03T08:41:05.170Z,9.60
2023-05-03T08:43:32.320Z,5.00
2023-05-03T08:45:59.258Z,6.90
2023-05-03T08:48:26.293Z,7.10
2023-05-03T08:50:54.158Z,4.50
2023-05-03T08:53:21.114Z,4.60
2023-05-03T08:55:48.307Z,4.60
2023-05-03T08:58:15.214Z,5.40
2023-05-03T09:00:45.184Z,6.10
2023-05-03T09:03:13.332Z,5.30
2023-05-03T09:05:41.520Z,4.90
2023-05-03T09:08:13.179Z,7.20
2023-05-03T09:10:46.017Z,10.50
2023-05-03T09:13:13.002Z,8.30
2023-05-03T09:15:40.049Z,5.50
2023-05-03T09:18:18.237Z,8.60
2023-05-03T09:20:52.023Z,5.70
2023-05-03T09:23:28.778Z,8.50
2023-05-03T09:25:56.056Z,5.60
2023-05-03T09:28:23.193Z,4.60
2023-05-03T09:30:50.523Z,5.90
2023-05-03T09:33:29.130Z,6.30
2023-05-03T09:35:57.410Z,8.80
2023-05-03T09:38:28.322Z,4.80
2023-05-03T09:40:55.167Z,7.70
2023-05-03T09:43:22.043Z,8.60
2023-05-03T09:45:49.041Z,5.20
2023-05-03T09:48:15.993Z,4.10
2023-05-03T09:50:43.026Z,6.40
2023-05-03T09:53:09.892Z,5.90
2023-05-03T09:55:39.154Z,4.20
2023-05-03T09:58:06.748Z,8.10
2023-05-03T10:00:40.762Z,6.90
2023-05-03T10:03:09.331Z,6.70
2023-05-03T10:05:48.892Z,7.20
2023-05-03T10:08:28.210Z,4.80
2023-05-03T10:10:55.325Z,8.30
2023-05-03T10:13:22.817Z,3.20
2023-05-03T10:15:53.073Z,7.10
2023-05-03T10:18:19.902Z,3.80
2023-05-03T10:20:52.768Z,5.50
2023-05-03T10:23:19.548Z,6.20
2023-05-03T10:26:13.585Z,5.40
2023-05-03T10:28:40.585Z,7.30
2023-05-03T10:31:29.160Z,4.70
2023-05-03T10:34:01.077Z,5.50
2023-05-03T10:36:38.337Z,4.90
2023-05-03T10:39:15.343Z,5.90
2023-05-03T10:41:44.128Z,7.40
2023-05-03T10:44:34.854Z,2.90
2023-05-03T10:47:17.407Z,10.70
2023-05-03T10:49:44.699Z,9.70
2023-05-03T10:52:39.651Z,4.60
2023-05-03T10:55:14.685Z,3.10
2023-05-03T10:57:42.848Z,6.70
2023-05-03T11:00:16.451Z,7.20
2023-05-03T11:03:04.324Z,5.60
2023-05-03T11:05:31.330Z,3.80
2023-05-03T11:08:19.348Z,6.50
2023-05-03T11:10:46.877Z,4.10
2023-05-03T11:13:14.155Z,4.60
2023-05-03T11:15:41.085Z,4.60
2023-05-03T11:18:08.368Z,8.50
2023-05-03T11:20:36.456Z,8.60
2023-05-03T11:23:04.241Z,2.70
2023-05-03T11:25:31.088Z,6.10
2023-05-03T11:27:57.864Z,7.70
2023-05-03T11:30:24.841Z,11.50
2023-05-03T11:32:51.730Z,7.30
2023-05-03T11:35:19.425Z,7.60
2023-05-03T11:37:46.220Z,7.50
2023-05-03T11:40:19.691Z,6.40
2023-05-03T11:42:59.875Z,5.80
2023-05-03T11:45:32.173Z,6.10
2023-05-03T11:47:59.536Z,12.10
2023-05-03T11:50:48.403Z,3.90
2023-05-03T11:53:15.618Z,7.60
2023-05-03T11:55:43.960Z,10.30
2023-05-03T11:58:29.013Z,12.70
2023-05-03T12:00:57.227Z,7.50
2023-05-03T12:03:28.890Z,12.10
2023-05-03T12:05:57.654Z,6.20
2023-05-03T12:08:30.902Z,8.70
2023-05-03T12:10:59.854Z,5.70
2023-05-03T12:13:30.646Z,6.00
2023-05-03T12:16:11.551Z,7.50
2023-05-03T12:18:52.430Z,8.80
2023-05-03T12:23:55.862Z,3.50
2023-05-03T12:26:26.732Z,8.30
2023-05-03T12:28:56.166Z,6.70
2023-05-03T12:31:23.918Z,10.40
2023-05-03T12:36:25.910Z,7.10
2023-05-03T12:38:56.203Z,9.50
2023-05-03T12:43:58.609Z,7.20
2023-05-03T12:46:34.594Z,5.60
2023-05-03T12:49:06.407Z,9.00
2023-05-03T12:51:34.381Z,10.40
2023-05-03T12:54:02.190Z,10.30
2023-05-03T12:56:32.830Z,12.10
2023-05-03T13:04:34.458Z,6.10
2023-05-03T13:06:47.764Z,10.30
2023-05-03T13:11:48.312Z,9.30
2023-05-03T13:14:16.444Z,8.00
2023-05-03T13:16:44.311Z,6.10
2023-05-03T13:19:14.338Z,6.10
2023-05-03T13:21:54.140Z,7.10
2023-05-03T13:24:21.075Z,10.50
2023-05-03T13:26:47.953Z,13.40
2023-05-03T13:29:14.790Z,8.00
2023-05-03T13:31:41.874Z,10.70
2023-05-03T13:34:08.809Z,13.90
2023-05-03T13:36:35.910Z,5.40
2023-05-03T13:39:02.948Z,16.30
2023-05-03T13:41:29.796Z,5.30
2023-05-03T13:43:56.743Z,8.10
2023-05-03T13:46:24.299Z,9.40
2023-05-03T13:48:53.015Z,13.50
2023-05-03T13:51:19.991Z,10.80
2023-05-03T13:53:47.180Z,7.60
2023-05-03T13:56:14.364Z,8.40
2023-05-03T13:58:41.586Z,6.80
2023-05-03T14:01:08.725Z,4.00
2023-05-03T14:03:35.893Z,8.30
2023-05-03T14:06:03.215Z,8.90
2023-05-03T14:08:30.311Z,12.90
2023-05-03T14:10:57.245Z,15.80
2023-05-03T14:13:24.956Z,5.80
2023-05-03T14:15:52.064Z,9.90
2023-05-03T14:18:19.278Z,4.30
2023-05-03T14:20:47.074Z,7.60
2023-05-03T14:23:13.881Z,7.20
2023-05-03T14:25:41.237Z,5.10
2023-05-03T14:28:08.102Z,9.50
2023-05-03T14:30:35.326Z,6.80
2023-05-03T14:33:03.054Z,8.80
2023-05-03T14:35:30.600Z,8.10
2023-05-03T14:37:57.501Z,10.70
2023-05-03T14:40:24.684Z,7.60
2023-05-03T14:42:51.671Z,8.50
2023-05-03T14:45:18.715Z,6.20
2023-05-03T14:47:46.247Z,7.30
2023-05-03T14:50:13.765Z,4.50
2023-05-03T14:52:40.732Z,8.30
2023-05-03T14:55:08.789Z,16.20
2023-05-03T14:57:36.457Z,7.70
2023-05-03T15:00:05.115Z,7.10
2023-05-03T15:02:32.396Z,7.20
2023-05-03T15:05:00.106Z,6.10
2023-05-03T15:07:27.220Z,9.10
2023-05-03T15:09:54.247Z,9.10
2023-05-03T15:12:21.816Z,10.10
2023-05-03T15:14:49.703Z,7.90
2023-05-03T15:17:16.872Z,13.40
2023-05-03T15:19:43.881Z,7.60
2023-05-03T15:22:10.995Z,12.80
2023-05-03T15:24:37.965Z,25.10
2023-05-03T15:27:05.065Z,15.20
2023-05-03T15:29:32.180Z,13.20
2023-05-03T15:31:59.789Z,10.20
2023-05-03T15:34:27.409Z,7.80
2023-05-03T15:36:54.548Z,4.30
2023-05-03T15:39:24.633Z,9.30
2023-05-03T15:41:54.587Z,10.40
2023-05-03T15:44:24.345Z,13.80
2023-05-03T15:46:54.680Z,10.20
2023-05-03T15:49:25.677Z,7.10
2023-05-03T15:51:55.011Z,11.50
2023-05-03T15:54:24.570Z,19.70
2023-05-03T15:56:55.712Z,11.70
2023-05-03T15:59:25.076Z,11.00
2023-05-03T16:01:54.789Z,7.90
2023-05-03T16:04:25.797Z,10.70
2023-05-03T16:06:55.440Z,7.40
2023-05-03T16:09:24.182Z,32.00
2023-05-03T16:11:54.252Z,27.10
2023-05-03T16:14:25.764Z,15.90
2023-05-03T16:16:56.792Z,10.80
2023-05-03T16:19:27.762Z,9.50
2023-05-03T16:21:57.888Z,13.00
2023-05-03T16:24:28.510Z,5.90
2023-05-03T16:26:58.785Z,5.90
2023-05-03T16:29:29.309Z,13.20
2023-05-03T16:31:58.895Z,10.00
2023-05-03T16:34:28.740Z,5.50
2023-05-03T16:36:58.020Z,12.00
2023-05-03T16:47:02.618Z,15.50
2023-05-03T16:49:33.309Z,15.50
2023-05-03T16:52:01.253Z,15.20
2023-05-03T16:54:28.609Z,15.30
2023-05-03T16:56:56.166Z,16.70
2023-05-03T16:59:23.824Z,13.00
2023-05-03T17:01:51.185Z,19.30
2023-05-03T17:04:18.234Z,19.40
2023-05-03T17:06:45.287Z,15.50
2023-05-03T17:09:13.558Z,19.50
2023-05-03T17:11:40.652Z,22.20
2023-05-03T17:14:08.912Z,21.30
2023-05-03T17:17:24.194Z,21.90
2023-05-03T17:19:51.154Z,20.00
2023-05-03T17:22:18.055Z,18.90
2023-05-03T17:24:45.108Z,15.20
2023-05-03T17:27:12.163Z,16.60
2023-05-03T17:29:39.717Z,13.80
2023-05-03T17:32:06.773Z,16.20
2023-05-03T17:34:33.642Z,16.60
2023-05-03T17:37:00.667Z,20.90
2023-05-03T17:39:28.736Z,19.30
2023-05-03T17:41:55.676Z,20.60
2023-05-03T17:44:23.357Z,30.10
2023-05-03T17:46:52.259Z,22.60
2023-05-03T17:49:19.900Z,15.60
2023-05-03T17:51:46.858Z,10.60
2023-05-03T17:54:13.724Z,16.70
2023-05-03T17:56:40.745Z,14.70
2023-05-03T17:59:08.108Z,29.60
2023-05-03T18:01:35.495Z,19.90
2023-05-03T18:04:02.554Z,8.90
2023-05-03T18:06:29.767Z,5.00
2023-05-03T18:08:57.458Z,2.80
2023-05-03T18:11:24.498Z,5.90
2023-05-03T18:13:51.522Z,7.60
2023-05-03T18:16:18.917Z,4.40
2023-05-03T18:18:45.831Z,6.30
2023-05-03T18:21:12.868Z,6.00
2023-05-03T18:23:39.830Z,4.80
2023-05-03T18:26:08.570Z,5.20
2023-05-03T18:28:35.686Z,4.50
2023-05-03T18:31:03.968Z,3.80
2023-05-03T18:33:32.961Z,7.60
2023-05-03T18:35:59.781Z,6.10
2023-05-03T18:38:27.126Z,3.50
2023-05-03T18:40:55.980Z,4.70
2023-05-03T18:43:23.194Z,2.60
2023-05-03T18:45:50.081Z,8.80
2023-05-03T18:48:17.404Z,7.90
2023-05-03T18:50:44.436Z,3.90
2023-05-03T18:53:11.472Z,8.90
2023-05-03T18:55:38.358Z,9.00
2023-05-03T18:58:05.580Z,4.60
2023-05-03T19:00:32.621Z,5.90
2023-05-03T19:03:00.250Z,4.50
2023-05-03T19:05:27.197Z,3.30
2023-05-03T19:07:54.112Z,4.40
2023-05-03T19:10:21.189Z,3.80
2023-05-03T19:12:48.253Z,3.80
2023-05-03T19:15:15.264Z,4.50
2023-05-03T19:17:42.696Z,2.00
2023-05-03T19:20:13.023Z,4.20
2023-05-03T19:22:40.058Z,2.90
2023-05-03T19:25:07.958Z,3.00
2023-05-03T19:27:34.966Z,8.50
2023-05-03T19:30:02.327Z,2.60
2023-05-03T19:32:33.529Z,3.80
2023-05-03T19:35:02.479Z,2.60
2023-05-03T19:37:29.477Z,4.00
2023-05-03T19:39:58.103Z,3.40
2023-05-03T19:42:25.053Z,2.20
2023-05-03T19:44:51.863Z,2.00
2023-05-03T19:47:19.050Z,4.00
2023-05-03T19:49:46.049Z,1.60
2023-05-03T19:52:12.850Z,3.80
2023-05-03T19:54:39.784Z,1.80
2023-05-03T19:57:07.677Z,2.70
2023-05-03T19:59:35.639Z,2.80
2023-05-03T20:02:03.430Z,1.70
2023-05-03T20:04:30.656Z,2.50
2023-05-03T20:06:57.544Z,1.70
2023-05-03T20:09:24.652Z,2.10
2023-05-03T20:11:56.307Z,1.70
2023-05-03T20:14:23.180Z,2.20
2023-05-03T20:16:50.085Z,3.00
2023-05-03T20:19:17.494Z,2.60
2023-05-03T20:21:45.052Z,3.40
2023-05-03T20:24:12.083Z,2.20
2023-05-03T20:26:39.215Z,5.20
2023-05-03T20:29:06.253Z,4.30
2023-05-03T20:31:33.220Z,2.30
2023-05-03T20:34:00.664Z,2.00
2023-05-03T20:36:28.247Z,2.20
2023-05-03T20:38:56.092Z,3.60
2023-05-03T20:41:23.361Z,4.00
2023-05-03T20:43:52.296Z,5.60
2023-05-03T20:46:19.411Z,1.80
2023-05-03T20:48:46.435Z,2.90
2023-05-03T20:51:13.487Z,4.40
2023-05-03T20:53:40.683Z,1.70
2023-05-03T20:56:08.273Z,2.00
2023-05-03T20:58:35.377Z,2.10
2023-05-03T21:01:07.014Z,3.30
2023-05-03T21:03:34.600Z,2.00
2023-05-03T21:06:01.580Z,4.20
2023-05-03T21:08:28.513Z,2.20
2023-05-03T21:10:55.650Z,3.40
2023-05-03T21:13:22.745Z,3.80
2023-05-03T21:15:51.244Z,3.00
2023-05-03T21:18:19.172Z,2.80
2023-05-03T21:20:46.529Z,2.00
2023-05-03T21:23:13.631Z,2.60
2023-05-03T21:25:40.671Z,1.80
2023-05-03T21:28:07.606Z,1.70
2023-05-03T21:30:34.689Z,4.40
2023-05-03T21:33:01.736Z,2.20
2023-05-03T21:35:28.975Z,3.50
2023-05-03T21:37:55.897Z,3.90
2023-05-03T21:40:22.903Z,4.70
2023-05-03T21:42:52.278Z,2.20
2023-05-03T21:45:19.666Z,2.60
2023-05-03T21:47:47.093Z,4.70
2023-05-03T21:50:14.342Z,3.20
2023-05-03T21:52:41.600Z,6.60
2023-05-03T21:55:08.858Z,2.20
2023-05-03T21:57:37.056Z,1.80
2023-05-03T22:00:06.007Z,3.80
2023-05-03T22:02:35.443Z,2.40
2023-05-03T22:05:02.706Z,2.50
2023-05-03T22:07:29.829Z,2.20
2023-05-03T22:09:56.806Z,1.80
2023-05-03T22:12:24.789Z,2.50
2023-05-03T22:14:53.171Z,1.90
2023-05-03T22:17:20.485Z,5.40
2023-05-03T22:19:47.533Z,3.20
2023-05-03T22:22:14.415Z,2.80
2023-05-03T22:24:41.718Z,3.70
2023-05-03T22:27:08.525Z,4.00
2023-05-03T22:29:35.425Z,1.90
2023-05-03T22:32:03.268Z,2.20
2023-05-03T22:34:30.438Z,2.80
2023-05-03T22:36:57.476Z,2.00
2023-05-03T22:39:24.364Z,2.10
2023-05-03T22:41:51.280Z,2.50
2023-05-03T22:44:18.249Z,1.90
2023-05-03T22:46:45.057Z,2.10
2023-05-03T22:49:12.074Z,6.20
2023-05-03T22:51:38.970Z,2.30
2023-05-03T22:54:05.980Z,1.90
2023-05-03T22:56:33.058Z,2.20
2023-05-03T22:58:59.943Z,2.30
2023-05-03T23:01:27.527Z,2.10
2023-05-03T23:03:54.802Z,3.40
2023-05-03T23:06:21.876Z,3.30
2023-05-03T23:08:49.225Z,2.00
2023-05-03T23:11:16.271Z,2.20
2023-05-03T23:13:43.420Z,2.30
2023-05-03T23:16:10.709Z,3.20
2023-05-03T23:18:38.029Z,3.20
2023-05-03T23:21:05.081Z,3.90
2023-05-03T23:23:32.042Z,2.40
2023-05-03T23:25:59.075Z,2.40
2023-05-03T23:28:26.748Z,3.20
2023-05-03T23:30:54.306Z,3.50
2023-05-03T23:33:21.752Z,3.20
2023-05-03T23:35:49.131Z,2.70
2023-05-03T23:38:16.531Z,2.80
2023-05-03T23:40:43.730Z,2.50
2023-05-03T23:43:10.523Z,3.60
2023-05-03T23:45:37.417Z,2.80
2023-05-03T23:48:05.156Z,3.10
2023-05-03T23:50:32.337Z,3.70
2023-05-03T23:52:59.705Z,2.60
2023-05-03T23:55:26.675Z,3.30
2023-05-03T23:57:53.682Z,3.90
